createdAt,value
2023-05-13T00:01:27.377Z,15.40
2023-05-13T00:06:30.223Z,15.34
2023-05-13T00:11:33.109Z,15.29
2023-05-13T00:16:37.766Z,15.23
2023-05-13T00:21:41.156Z,15.14
2023-05-13T00:26:44.052Z,15.07
2023-05-13T00:31:48.299Z,15.01
2023-05-13T00:36:51.775Z,14.92
2023-05-13T00:41:54.575Z,14.88
2023-05-13T00:46:58.914Z,14.80
2023-05-13T00:52:02.014Z,14.69
2023-05-13T00:57:05.177Z,14.64
2023-05-13T01:02:14.751Z,14.59
2023-05-13T01:07:25.489Z,14.59
2023-05-13T01:12:32.362Z,14.60
2023-05-13T01:17:39.506Z,14.64
2023-05-13T01:22:43.640Z,14.57
2023-05-13T01:27:46.858Z,14.53
2023-05-13T01:32:53.010Z,14.41
2023-05-13T01:37:58.280Z,14.32
2023-05-13T01:43:01.668Z,14.23
2023-05-13T01:48:05.473Z,14.16
2023-05-13T01:53:18.892Z,14.06
2023-05-13T01:58:23.318Z,14.02
2023-05-13T02:03:26.512Z,14.00
2023-05-13T02:08:31.058Z,13.95
2023-05-13T02:13:33.945Z,13.90
2023-05-13T02:18:36.824Z,13.83
2023-05-13T02:23:40.977Z,13.76
2023-05-13T02:28:43.791Z,13.70
2023-05-13T02:33:49.921Z,13.59
2023-05-13T02:38:54.796Z,13.50
2023-05-13T02:43:57.710Z,13.45
2023-05-13T02:49:01.124Z,13.41
2023-05-13T02:54:08.336Z,13.38
2023-05-13T02:59:11.254Z,13.36
2023-05-13T03:04:14.565Z,13.31
2023-05-13T03:09:18.806Z,13.26
2023-05-13T03:14:23.047Z,13.26
2023-05-13T03:19:25.883Z,13.24
2023-05-13T03:24:30.180Z,13.22
2023-05-13T03:29:33.253Z,13.16
2023-05-13T03:34:37.843Z,13.17
2023-05-13T03:39:42.714Z,13.22
2023-05-13T03:44:45.927Z,13.20
2023-05-13T03:49:48.971Z,13.20
2023-05-13T03:54:53.780Z,13.17
2023-05-13T03:59:56.616Z,13.17
2023-05-13T04:04:59.511Z,13.20
2023-05-13T04:10:03.751Z,13.16
2023-05-13T04:15:07.475Z,13.21
2023-05-13T04:20:10.922Z,13.23
2023-05-13T04:25:15.240Z,13.27
2023-05-13T04:30:18.360Z,13.28
2023-05-13T04:35:22.696Z,13.34
2023-05-13T04:40:30.981Z,13.38
2023-05-13T04:45:38.611Z,13.44
2023-05-13T04:50:46.483Z,13.46
2023-05-13T04:55:52.481Z,13.52
2023-05-13T05:00:55.430Z,13.62
2023-05-13T05:05:58.485Z,13.66
2023-05-13T05:11:02.958Z,13.72
2023-05-13T05:16:08.740Z,13.78
2023-05-13T05:21:11.958Z,13.82
2023-05-13T05:26:16.930Z,13.94
2023-05-13T05:31:19.891Z,14.09
2023-05-13T05:36:22.844Z,14.19
2023-05-13T05:41:28.154Z,14.35
2023-05-13T05:46:31.500Z,14.53
2023-05-13T05:51:35.394Z,14.63
2023-05-13T05:56:41.331Z,14.74
2023-05-13T06:01:44.256Z,14.90
2023-05-13T06:06:47.132Z,15.13
2023-05-13T06:11:51.681Z,15.31
2023-05-13T06:16:55.882Z,15.47
2023-05-13T06:21:58.880Z,15.72
2023-05-13T06:27:03.105Z,15.94
2023-05-13T06:32:06.708Z,16.19
2023-05-13T06:37:09.568Z,17.02
2023-05-13T06:42:14.346Z,18.11
2023-05-13T06:47:23.715Z,19.60
2023-05-13T06:52:27.059Z,20.23
2023-05-13T06:57:41.947Z,20.50
2023-05-13T07:02:46.128Z,20.92
2023-05-13T07:07:53.472Z,20.99
2023-05-13T07:12:57.739Z,21.34
2023-05-13T07:18:00.732Z,21.51
2023-05-13T07:23:03.620Z,21.75
2023-05-13T07:28:08.187Z,21.84
2023-05-13T07:33:11.138Z,22.05
2023-05-13T07:38:14.180Z,22.17
2023-05-13T07:43:23.758Z,22.33
2023-05-13T07:48:28.191Z,22.48
2023-05-13T07:53:30.981Z,22.62
2023-05-13T07:58:35.093Z,22.77
2023-05-13T08:03:38.128Z,23.10
2023-05-13T08:08:41.124Z,23.31
2023-05-13T08:13:45.415Z,23.45
2023-05-13T08:18:48.642Z,23.54
2023-05-13T08:23:51.916Z,23.69
2023-05-13T08:28:57.246Z,23.55
2023-05-13T08:34:25.296Z,23.73
2023-05-13T08:39:28.149Z,23.71
2023-05-13T08:44:33.709Z,23.86
2023-05-13T08:49:36.484Z,23.95
2023-05-13T08:54:39.891Z,24.02
2023-05-13T08:59:44.052Z,23.96
2023-05-13T09:04:47.970Z,23.94
2023-05-13T09:09:51.300Z,23.76
2023-05-13T09:14:55.712Z,23.87
2023-05-13T09:19:58.593Z,23.93
2023-05-13T09:25:04.112Z,24.10
2023-05-13T09:30:09.599Z,24.17
2023-05-13T09:35:17.594Z,24.16
2023-05-13T09:40:20.843Z,24.16
2023-05-13T09:45:26.611Z,24.21
2023-05-13T09:50:29.571Z,24.25
2023-05-13T09:55:32.393Z,24.10
2023-05-13T10:00:38.994Z,24.17
2023-05-13T10:05:42.736Z,24.22
2023-05-13T10:10:46.629Z,24.11
2023-05-13T10:15:52.133Z,24.01
2023-05-13T10:20:56.041Z,23.89
2023-05-13T10:26:00.183Z,24.17
2023-05-13T10:31:04.409Z,24.15
2023-05-13T10:36:21.247Z,24.22
2023-05-13T10:41:41.629Z,24.27
2023-05-13T10:46:48.783Z,24.41
2023-05-13T10:51:52.360Z,24.18
2023-05-13T10:56:58.432Z,24.28
2023-05-13T11:02:04.557Z,24.25
2023-05-13T11:07:16.634Z,24.34
2023-05-13T11:12:19.516Z,24.17
2023-05-13T11:17:23.716Z,24.30
2023-05-13T11:22:27.666Z,24.54
2023-05-13T11:27:34.133Z,24.51
2023-05-13T11:32:56.660Z,24.71
2023-05-13T11:38:01.058Z,24.80
2023-05-13T11:43:04.938Z,24.79
2023-05-13T11:48:21.061Z,24.82
2023-05-13T11:53:24.020Z,24.83
2023-05-13T11:58:26.986Z,24.69
2023-05-13T12:03:31.258Z,24.51
2023-05-13T12:08:34.114Z,23.84
2023-05-13T12:13:37.196Z,24.47
2023-05-13T12:18:41.719Z,24.76
2023-05-13T12:23:44.728Z,24.89
2023-05-13T12:28:47.729Z,24.64
2023-05-13T12:33:52.062Z,24.68
2023-05-13T12:38:58.200Z,24.59
2023-05-13T12:44:03.895Z,24.64
2023-05-13T12:49:12.040Z,24.57
2023-05-13T12:54:14.865Z,24.46
2023-05-13T12:59:19.174Z,24.93
2023-05-13T13:04:23.462Z,25.04
2023-05-13T13:09:26.633Z,25.11
2023-05-13T13:14:29.768Z,25.27
2023-05-13T13:19:33.999Z,25.31
2023-05-13T13:24:36.992Z,25.31
2023-05-13T13:29:40.284Z,25.44
2023-05-13T13:34:44.471Z,25.20
2023-05-13T13:39:47.332Z,25.06
2023-05-13T13:44:50.226Z,25.28
2023-05-13T13:49:54.395Z,25.41
2023-05-13T13:54:57.269Z,25.42
2023-05-13T14:00:00.230Z,25.27
2023-05-13T14:05:04.788Z,25.47
2023-05-13T14:10:08.870Z,25.23
2023-05-13T14:15:12.673Z,25.39
2023-05-13T14:20:16.937Z,25.49
2023-05-13T14:25:19.726Z,25.47
2023-05-13T14:30:22.977Z,25.47
2023-05-13T14:35:27.486Z,25.51
2023-05-13T14:40:30.670Z,25.35
2023-05-13T14:45:33.663Z,25.32
2023-05-13T14:50:39.412Z,25.21
2023-05-13T14:55:44.264Z,25.25
2023-05-13T15:00:47.317Z,25.19
2023-05-13T15:05:51.801Z,25.16
2023-05-13T15:10:54.641Z,25.19
2023-05-13T15:15:57.544Z,25.21
2023-05-13T15:21:01.772Z,25.20
2023-05-13T15:26:04.759Z,25.14
2023-05-13T15:31:07.734Z,24.92
2023-05-13T15:36:11.935Z,24.82
2023-05-13T15:41:14.730Z,24.68
2023-05-13T15:46:17.644Z,24.65
2023-05-13T15:51:21.971Z,24.54
2023-05-13T15:56:25.725Z,24.54
2023-05-13T16:01:28.831Z,24.43
2023-05-13T16:06:35.264Z,24.28
2023-05-13T16:11:38.969Z,24.27
2023-05-13T16:16:42.077Z,24.18
2023-05-13T16:21:46.418Z,24.07
2023-05-13T16:26:49.371Z,23.99
2023-05-13T16:31:52.372Z,23.79
2023-05-13T16:36:59.104Z,23.69
2023-05-13T16:42:02.171Z,23.56
2023-05-13T16:47:08.592Z,23.39
2023-05-13T16:52:12.981Z,23.17
2023-05-13T16:57:16.199Z,23.02
2023-05-13T17:02:19.184Z,22.85
2023-05-13T17:07:23.452Z,22.65
2023-05-13T17:12:27.227Z,22.44
2023-05-13T17:17:30.368Z,22.26
2023-05-13T17:22:34.911Z,22.06
2023-05-13T17:27:37.777Z,21.90
2023-05-13T17:32:40.667Z,21.81
2023-05-13T17:37:44.922Z,21.58
2023-05-13T17:42:47.816Z,21.42
2023-05-13T17:47:50.706Z,21.28
2023-05-13T17:52:55.120Z,21.08
2023-05-13T17:57:59.819Z,20.83
2023-05-13T18:03:02.750Z,20.68
2023-05-13T18:08:07.136Z,20.40
2023-05-13T18:13:10.044Z,20.17
2023-05-13T18:18:13.520Z,19.98
2023-05-13T18:23:17.980Z,19.76
2023-05-13T18:28:20.947Z,19.59
2023-05-13T18:33:23.780Z,19.48
2023-05-13T18:38:28.002Z,19.25
2023-05-13T18:43:31.016Z,19.07
2023-05-13T18:48:33.906Z,18.80
2023-05-13T18:53:38.119Z,18.64
2023-05-13T18:58:41.080Z,18.42
2023-05-13T19:03:44.208Z,18.24
2023-05-13T19:08:48.537Z,18.04
2023-05-13T19:13:51.333Z,17.89
2023-05-13T19:18:54.412Z,17.73
2023-05-13T19:23:59.557Z,17.61
2023-05-13T19:29:02.625Z,17.47
2023-05-13T19:34:07.553Z,17.39
2023-05-13T19:39:11.969Z,17.26
2023-05-13T19:44:14.859Z,17.19
2023-05-13T19:49:17.744Z,17.03
2023-05-13T19:54:22.205Z,16.92
2023-05-13T19:59:25.226Z,16.86
2023-05-13T20:04:28.649Z,16.78
2023-05-13T20:09:32.896Z,16.67
2023-05-13T20:14:45.881Z,16.53
2023-05-13T20:19:49.816Z,16.43
2023-05-13T20:24:54.437Z,16.29
2023-05-13T20:29:57.282Z,16.21
2023-05-13T20:35:00.159Z,16.13
2023-05-13T20:40:05.309Z,16.04
2023-05-13T20:45:09.247Z,15.93
2023-05-13T20:50:13.038Z,15.85
2023-05-13T20:55:17.818Z,15.78
2023-05-13T21:00:21.421Z,15.74
2023-05-13T21:05:24.560Z,15.71
2023-05-13T21:10:29.019Z,15.67
2023-05-13T21:15:31.900Z,15.61
2023-05-13T21:20:34.791Z,15.61
2023-05-13T21:25:39.037Z,15.52
2023-05-13T21:30:42.878Z,15.49
2023-05-13T21:35:45.615Z,15.45
2023-05-13T21:40:49.940Z,15.40
2023-05-13T21:45:52.771Z,15.40
2023-05-13T21:50:55.653Z,15.32
2023-05-13T21:56:00.218Z,15.25
2023-05-13T22:01:03.122Z,15.22
2023-05-13T22:06:06.153Z,15.13
2023-05-13T22:11:11.311Z,15.12
2023-05-13T22:16:14.511Z,15.06
2023-05-13T22:21:17.524Z,15.00
2023-05-13T22:26:21.925Z,15.01
2023-05-13T22:31:25.684Z,14.98
2023-05-13T22:36:28.614Z,14.93
2023-05-13T22:41:32.841Z,14.90
2023-05-13T22:46:35.812Z,14.80
2023-05-13T22:51:38.720Z,14.77
2023-05-13T22:56:42.923Z,14.69
2023-05-13T23:01:45.769Z,14.64
2023-05-13T23:06:48.649Z,14.51
2023-05-13T23:11:52.824Z,14.47
2023-05-13T23:16:55.591Z,14.44
2023-05-13T23:21:58.524Z,14.39
2023-05-13T23:27:02.757Z,14.30
2023-05-13T23:32:07.170Z,14.20
2023-05-13T23:37:10.145Z,14.11
2023-05-13T23:42:14.424Z,14.07
2023-05-13T23:47:17.168Z,14.01
2023-05-13T23:52:19.969Z,13.96
2023-05-13T23:57:24.256Z,13.89
